Terminal Aerodrome Forecast
Issued by NWS Cleveland, OH

Home | Current Version | Previous Version | Text Only | Print | Product List | Glossary Off
Versions: 1 2 3 4 5 6 7 8 9 10 11 12 13 14 15 16 17 18 19 20 21 22 23 24 25 26

000
FTUS41 KCLE 192200 AAA
TAFMFD
TAF AMD
KMFD 192248Z 1923/2018 20008KT P6SM VCSH BKN050
      TEMPO 2000/2002 27015G30KT 2SM TSRA OVC025CB
     FM200200 22008KT 5SM SHRA OVC050
     FM200400 20006KT 4SM BR BKN030
      TEMPO 2009/2013 1 1/2SM BR BKN012
     FM201400 25006KT 6SM HZ SCT025 BKN120=

USA.gov is the U.S. government's official web portal to all federal, state and local government web resources and services.